Terminal Aerodrome Forecast
Issued by NWS Wilmington, OH

Current Version | Previous Version | Text Only | Print | Product List | Glossary Off
Versions: 1 2 3 4 5 6 7 8 9 10 11 12 13 14 15 16

000
FTUS41 KILN 201700 RRA
TAFILN
TAF
KILN 201745Z 2018/2118 26016G25KT P6SM BKN035
     FM210200 26010KT P6SM BKN040
     FM210700 24004KT P6SM SKC
     FM211500 15004KT P6SM SCT250=

USA.gov is the U.S. government's official web portal to all federal, state and local government web resources and services.